sensor_id;sensor_type;location;lat;lon;timestamp;P1;durP1;ratioP1;P2;durP2;ratioP2
82030;SDS011;71592;52.178;4.512;2023-10-19T00:00:35;20.30;;;15.27;;
82030;SDS011;71592;52.178;4.512;2023-10-19T00:03:04;18.77;;;12.20;;
82030;SDS011;71592;52.178;4.512;2023-10-19T00:05:29;16.63;;;12.10;;
82030;SDS011;71592;52.178;4.512;2023-10-19T00:07:56;19.55;;;14.05;;
82030;SDS011;71592;52.178;4.512;2023-10-19T00:10:22;20.40;;;14.07;;
82030;SDS011;71592;52.178;4.512;2023-10-19T00:12:48;19.63;;;13.98;;
82030;SDS011;71592;52.178;4.512;2023-10-19T00:15:22;19.33;;;13.35;;
82030;SDS011;71592;52.178;4.512;2023-10-19T00:17:49;20.20;;;13.68;;
82030;SDS011;71592;52.178;4.512;2023-10-19T00:20:18;17.67;;;12.48;;
82030;SDS011;71592;52.178;4.512;2023-10-19T00:22:55;17.48;;;11.88;;
82030;SDS011;71592;52.178;4.512;2023-10-19T00:25:22;17.85;;;11.10;;
82030;SDS011;71592;52.178;4.512;2023-10-19T00:27:49;16.45;;;11.98;;
82030;SDS011;71592;52.178;4.512;2023-10-19T00:30:14;18.53;;;12.83;;
82030;SDS011;71592;52.178;4.512;2023-10-19T00:32:43;18.08;;;12.20;;
82030;SDS011;71592;52.178;4.512;2023-10-19T00:35:08;17.20;;;12.63;;
82030;SDS011;71592;52.178;4.512;2023-10-19T00:37:52;19.38;;;12.93;;
82030;SDS011;71592;52.178;4.512;2023-10-19T00:40:17;17.55;;;12.75;;
82030;SDS011;71592;52.178;4.512;2023-10-19T00:42:58;16.80;;;12.07;;
82030;SDS011;71592;52.178;4.512;2023-10-19T00:45:28;18.13;;;12.02;;
82030;SDS011;71592;52.178;4.512;2023-10-19T00:47:56;16.63;;;12.02;;
82030;SDS011;71592;52.178;4.512;2023-10-19T00:50:23;17.45;;;11.73;;
82030;SDS011;71592;52.178;4.512;2023-10-19T00:52:52;14.70;;;10.35;;
82030;SDS011;71592;52.178;4.512;2023-10-19T00:55:17;17.80;;;12.80;;
82030;SDS011;71592;52.178;4.512;2023-10-19T00:57:46;20.35;;;13.75;;
82030;SDS011;71592;52.178;4.512;2023-10-19T01:00:14;18.90;;;12.65;;
82030;SDS011;71592;52.178;4.512;2023-10-19T01:02:59;15.93;;;11.95;;
82030;SDS011;71592;52.178;4.512;2023-10-19T01:05:26;15.43;;;10.18;;
82030;SDS011;71592;52.178;4.512;2023-10-19T01:07:57;18.88;;;12.35;;
82030;SDS011;71592;52.178;4.512;2023-10-19T01:10:22;19.63;;;13.37;;
82030;SDS011;71592;52.178;4.512;2023-10-19T01:12:48;15.93;;;11.32;;
82030;SDS011;71592;52.178;4.512;2023-10-19T01:15:19;18.38;;;12.85;;
82030;SDS011;71592;52.178;4.512;2023-10-19T01:17:45;19.15;;;12.43;;
82030;SDS011;71592;52.178;4.512;2023-10-19T01:20:15;15.75;;;11.32;;
82030;SDS011;71592;52.178;4.512;2023-10-19T01:23:02;16.35;;;11.40;;
82030;SDS011;71592;52.178;4.512;2023-10-19T01:28:29;16.75;;;11.52;;
82030;SDS011;71592;52.178;4.512;2023-10-19T01:33:55;16.67;;;11.90;;
82030;SDS011;71592;52.178;4.512;2023-10-19T01:36:21;14.55;;;10.90;;
82030;SDS011;71592;52.178;4.512;2023-10-19T01:38:46;16.67;;;12.02;;
82030;SDS011;71592;52.178;4.512;2023-10-19T01:41:12;14.68;;;11.35;;
82030;SDS011;71592;52.178;4.512;2023-10-19T01:43:43;16.35;;;12.43;;
82030;SDS011;71592;52.178;4.512;2023-10-19T01:46:10;16.35;;;12.75;;
82030;SDS011;71592;52.178;4.512;2023-10-19T01:48:42;16.05;;;11.88;;
82030;SDS011;71592;52.178;4.512;2023-10-19T01:51:08;17.35;;;13.07;;
82030;SDS011;71592;52.178;4.512;2023-10-19T01:53:36;16.80;;;12.60;;
82030;SDS011;71592;52.178;4.512;2023-10-19T01:56:02;16.98;;;13.00;;
82030;SDS011;71592;52.178;4.512;2023-10-19T01:58:31;18.52;;;12.80;;
82030;SDS011;71592;52.178;4.512;2023-10-19T02:00:56;18.73;;;13.00;;
82030;SDS011;71592;52.178;4.512;2023-10-19T02:03:31;17.60;;;13.35;;
82030;SDS011;71592;52.178;4.512;2023-10-19T02:05:58;17.02;;;12.88;;
82030;SDS011;71592;52.178;4.512;2023-10-19T02:08:24;16.48;;;12.10;;
82030;SDS011;71592;52.178;4.512;2023-10-19T02:10:51;15.75;;;11.63;;
82030;SDS011;71592;52.178;4.512;2023-10-19T02:13:16;17.13;;;12.55;;
82030;SDS011;71592;52.178;4.512;2023-10-19T02:15:44;16.07;;;10.93;;
82030;SDS011;71592;52.178;4.512;2023-10-19T02:18:10;15.20;;;11.73;;
82030;SDS011;71592;52.178;4.512;2023-10-19T02:20:36;16.73;;;11.35;;
82030;SDS011;71592;52.178;4.512;2023-10-19T02:23:05;14.15;;;10.98;;
82030;SDS011;71592;52.178;4.512;2023-10-19T02:25:31;14.00;;;10.45;;
82030;SDS011;71592;52.178;4.512;2023-10-19T02:28:01;11.65;;;7.78;;
82030;SDS011;71592;52.178;4.512;2023-10-19T02:30:27;9.27;;;7.43;;
82030;SDS011;71592;52.178;4.512;2023-10-19T02:32:53;9.83;;;7.13;;
82030;SDS011;71592;52.178;4.512;2023-10-19T02:35:18;10.27;;;6.60;;
82030;SDS011;71592;52.178;4.512;2023-10-19T02:37:43;9.40;;;5.65;;
82030;SDS011;71592;52.178;4.512;2023-10-19T02:40:09;6.93;;;5.43;;
82030;SDS011;71592;52.178;4.512;2023-10-19T02:42:44;6.15;;;4.72;;
82030;SDS011;71592;52.178;4.512;2023-10-19T02:45:12;7.90;;;4.53;;
82030;SDS011;71592;52.178;4.512;2023-10-19T02:47:40;6.25;;;4.22;;
82030;SDS011;71592;52.178;4.512;2023-10-19T02:50:07;3.65;;;3.10;;
82030;SDS011;71592;52.178;4.512;2023-10-19T02:52:36;7.43;;;4.38;;
82030;SDS011;71592;52.178;4.512;2023-10-19T02:55:01;6.17;;;3.67;;
82030;SDS011;71592;52.178;4.512;2023-10-19T02:57:29;4.13;;;3.65;;
82030;SDS011;71592;52.178;4.512;2023-10-19T02:59:56;5.55;;;3.28;;
82030;SDS011;71592;52.178;4.512;2023-10-19T03:02:22;3.30;;;2.50;;
82030;SDS011;71592;52.178;4.512;2023-10-19T03:04:47;5.37;;;2.83;;
82030;SDS011;71592;52.178;4.512;2023-10-19T03:07:13;3.63;;;2.78;;
82030;SDS011;71592;52.178;4.512;2023-10-19T03:09:40;3.25;;;2.35;;
82030;SDS011;71592;52.178;4.512;2023-10-19T03:12:13;5.18;;;2.65;;
82030;SDS011;71592;52.178;4.512;2023-10-19T03:14:39;5.68;;;2.42;;
82030;SDS011;71592;52.178;4.512;2023-10-19T03:17:07;4.43;;;2.33;;
82030;SDS011;71592;52.178;4.512;2023-10-19T03:19:34;3.55;;;2.38;;
82030;SDS011;71592;52.178;4.512;2023-10-19T03:21:59;3.40;;;2.30;;
82030;SDS011;71592;52.178;4.512;2023-10-19T03:24:25;3.75;;;2.05;;
82030;SDS011;71592;52.178;4.512;2023-10-19T03:29:37;4.45;;;1.83;;
82030;SDS011;71592;52.178;4.512;2023-10-19T03:32:04;3.40;;;2.10;;
82030;SDS011;71592;52.178;4.512;2023-10-19T03:34:30;4.18;;;2.30;;
82030;SDS011;71592;52.178;4.512;2023-10-19T03:36:57;4.47;;;2.25;;
82030;SDS011;71592;52.178;4.512;2023-10-19T03:39:27;3.78;;;2.53;;
82030;SDS011;71592;52.178;4.512;2023-10-19T03:41:52;4.18;;;2.70;;
82030;SDS011;71592;52.178;4.512;2023-10-19T03:44:18;3.20;;;2.20;;
82030;SDS011;71592;52.178;4.512;2023-10-19T03:46:56;3.92;;;2.63;;
82030;SDS011;71592;52.178;4.512;2023-10-19T03:49:29;4.15;;;2.90;;
82030;SDS011;71592;52.178;4.512;2023-10-19T03:52:03;4.50;;;2.00;;
82030;SDS011;71592;52.178;4.512;2023-10-19T03:54:45;3.17;;;2.30;;
82030;SDS011;71592;52.178;4.512;2023-10-19T03:57:13;3.78;;;2.20;;
82030;SDS011;71592;52.178;4.512;2023-10-19T03:59:44;3.80;;;2.40;;
82030;SDS011;71592;52.178;4.512;2023-10-19T04:02:09;3.55;;;2.53;;
82030;SDS011;71592;52.178;4.512;2023-10-19T04:04:38;3.95;;;2.00;;
82030;SDS011;71592;52.178;4.512;2023-10-19T04:07:13;4.32;;;2.20;;
82030;SDS011;71592;52.178;4.512;2023-10-19T04:09:48;4.22;;;2.20;;
82030;SDS011;71592;52.178;4.512;2023-10-19T04:12:31;4.88;;;2.05;;
82030;SDS011;71592;52.178;4.512;2023-10-19T04:14:56;4.67;;;1.80;;
82030;SDS011;71592;52.178;4.512;2023-10-19T04:17:22;4.07;;;2.13;;
82030;SDS011;71592;52.178;4.512;2023-10-19T04:19:49;5.38;;;2.28;;
82030;SDS011;71592;52.178;4.512;2023-10-19T04:22:16;5.13;;;2.53;;
82030;SDS011;71592;52.178;4.512;2023-10-19T04:24:48;9.10;;;2.60;;
82030;SDS011;71592;52.178;4.512;2023-10-19T04:27:13;3.53;;;2.30;;
82030;SDS011;71592;52.178;4.512;2023-10-19T04:29:39;4.28;;;2.33;;
82030;SDS011;71592;52.178;4.512;2023-10-19T04:32:06;4.72;;;2.53;;
82030;SDS011;71592;52.178;4.512;2023-10-19T04:34:32;4.50;;;1.90;;
82030;SDS011;71592;52.178;4.512;2023-10-19T04:36:57;7.15;;;2.10;;
82030;SDS011;71592;52.178;4.512;2023-10-19T04:39:23;5.03;;;2.57;;
82030;SDS011;71592;52.178;4.512;2023-10-19T04:41:49;4.32;;;1.80;;
82030;SDS011;71592;52.178;4.512;2023-10-19T04:44:14;7.30;;;2.25;;
82030;SDS011;71592;52.178;4.512;2023-10-19T04:46:40;3.95;;;2.33;;
82030;SDS011;71592;52.178;4.512;2023-10-19T04:49:05;3.80;;;2.15;;
82030;SDS011;71592;52.178;4.512;2023-10-19T04:51:31;3.93;;;1.83;;
82030;SDS011;71592;52.178;4.512;2023-10-19T04:53:56;3.85;;;2.20;;
82030;SDS011;71592;52.178;4.512;2023-10-19T04:56:21;4.87;;;2.50;;
82030;SDS011;71592;52.178;4.512;2023-10-19T04:58:47;2.95;;;1.95;;
82030;SDS011;71592;52.178;4.512;2023-10-19T05:01:12;3.97;;;2.45;;
82030;SDS011;71592;52.178;4.512;2023-10-19T05:03:38;4.25;;;2.42;;
82030;SDS011;71592;52.178;4.512;2023-10-19T05:06:03;5.88;;;2.30;;
82030;SDS011;71592;52.178;4.512;2023-10-19T05:08:29;4.90;;;2.15;;
82030;SDS011;71592;52.178;4.512;2023-10-19T05:10:55;5.93;;;2.30;;
82030;SDS011;71592;52.178;4.512;2023-10-19T05:13:24;5.22;;;2.40;;
82030;SDS011;71592;52.178;4.512;2023-10-19T05:15:50;4.07;;;2.10;;
82030;SDS011;71592;52.178;4.512;2023-10-19T05:18:16;3.88;;;2.13;;
82030;SDS011;71592;52.178;4.512;2023-10-19T05:20:41;3.50;;;2.47;;
82030;SDS011;71592;52.178;4.512;2023-10-19T05:23:07;5.87;;;2.17;;
82030;SDS011;71592;52.178;4.512;2023-10-19T05:25:33;3.33;;;2.15;;
82030;SDS011;71592;52.178;4.512;2023-10-19T05:27:58;5.45;;;3.33;;
82030;SDS011;71592;52.178;4.512;2023-10-19T05:30:25;5.35;;;2.45;;
82030;SDS011;71592;52.178;4.512;2023-10-19T05:32:50;3.77;;;2.30;;
82030;SDS011;71592;52.178;4.512;2023-10-19T05:35:16;3.97;;;2.00;;
82030;SDS011;71592;52.178;4.512;2023-10-19T05:37:48;3.50;;;2.10;;
82030;SDS011;71592;52.178;4.512;2023-10-19T05:40:14;5.30;;;2.10;;
82030;SDS011;71592;52.178;4.512;2023-10-19T05:42:40;5.57;;;2.25;;
82030;SDS011;71592;52.178;4.512;2023-10-19T05:45:05;4.00;;;2.43;;
82030;SDS011;71592;52.178;4.512;2023-10-19T05:47:30;4.00;;;2.22;;
82030;SDS011;71592;52.178;4.512;2023-10-19T05:49:56;2.90;;;2.20;;
82030;SDS011;71592;52.178;4.512;2023-10-19T05:52:21;5.33;;;2.37;;
82030;SDS011;71592;52.178;4.512;2023-10-19T05:54:47;5.38;;;2.22;;
82030;SDS011;71592;52.178;4.512;2023-10-19T05:57:14;3.90;;;2.20;;
82030;SDS011;71592;52.178;4.512;2023-10-19T05:59:39;6.40;;;2.20;;
82030;SDS011;71592;52.178;4.512;2023-10-19T06:02:05;5.10;;;2.20;;
82030;SDS011;71592;52.178;4.512;2023-10-19T06:04:32;6.60;;;2.42;;
82030;SDS011;71592;52.178;4.512;2023-10-19T06:06:58;3.70;;;2.00;;
82030;SDS011;71592;52.178;4.512;2023-10-19T06:09:23;3.95;;;2.20;;
82030;SDS011;71592;52.178;4.512;2023-10-19T06:11:54;5.57;;;2.40;;
82030;SDS011;71592;52.178;4.512;2023-10-19T06:14:19;4.35;;;2.30;;
82030;SDS011;71592;52.178;4.512;2023-10-19T06:16:45;5.70;;;2.50;;
82030;SDS011;71592;52.178;4.512;2023-10-19T06:19:10;4.00;;;1.90;;
82030;SDS011;71592;52.178;4.512;2023-10-19T06:21:35;5.90;;;2.70;;
82030;SDS011;71592;52.178;4.512;2023-10-19T06:24:02;5.18;;;2.15;;
82030;SDS011;71592;52.178;4.512;2023-10-19T06:26:30;5.25;;;2.10;;
82030;SDS011;71592;52.178;4.512;2023-10-19T06:28:55;3.90;;;2.20;;
82030;SDS011;71592;52.178;4.512;2023-10-19T06:31:24;3.67;;;2.03;;
82030;SDS011;71592;52.178;4.512;2023-10-19T06:33:50;5.50;;;2.40;;
82030;SDS011;71592;52.178;4.512;2023-10-19T06:36:15;6.13;;;1.67;;
82030;SDS011;71592;52.178;4.512;2023-10-19T06:38:40;3.00;;;2.20;;
82030;SDS011;71592;52.178;4.512;2023-10-19T06:41:13;8.35;;;2.40;;
82030;SDS011;71592;52.178;4.512;2023-10-19T06:43:38;4.25;;;1.88;;
82030;SDS011;71592;52.178;4.512;2023-10-19T06:46:04;5.30;;;2.42;;
82030;SDS011;71592;52.178;4.512;2023-10-19T06:48:29;6.30;;;2.27;;
82030;SDS011;71592;52.178;4.512;2023-10-19T06:50:55;5.67;;;2.10;;
82030;SDS011;71592;52.178;4.512;2023-10-19T06:53:21;6.13;;;1.90;;
82030;SDS011;71592;52.178;4.512;2023-10-19T06:55:46;5.25;;;2.50;;
82030;SDS011;71592;52.178;4.512;2023-10-19T06:58:13;10.45;;;2.38;;
82030;SDS011;71592;52.178;4.512;2023-10-19T07:00:39;5.57;;;1.95;;
82030;SDS011;71592;52.178;4.512;2023-10-19T07:03:07;4.47;;;2.40;;
82030;SDS011;71592;52.178;4.512;2023-10-19T07:05:33;5.10;;;2.65;;
82030;SDS011;71592;52.178;4.512;2023-10-19T07:07:59;3.58;;;2.00;;
82030;SDS011;71592;52.178;4.512;2023-10-19T07:10:24;3.65;;;2.10;;
82030;SDS011;71592;52.178;4.512;2023-10-19T07:12:52;6.63;;;2.22;;
82030;SDS011;71592;52.178;4.512;2023-10-19T07:15:21;5.28;;;2.10;;
82030;SDS011;71592;52.178;4.512;2023-10-19T07:17:48;4.07;;;2.55;;
82030;SDS011;71592;52.178;4.512;2023-10-19T07:20:14;4.10;;;1.90;;
82030;SDS011;71592;52.178;4.512;2023-10-19T07:22:50;4.75;;;2.10;;
82030;SDS011;71592;52.178;4.512;2023-10-19T07:25:16;6.47;;;1.77;;
82030;SDS011;71592;52.178;4.512;2023-10-19T07:27:45;5.03;;;2.03;;
82030;SDS011;71592;52.178;4.512;2023-10-19T07:30:11;4.43;;;2.03;;
82030;SDS011;71592;52.178;4.512;2023-10-19T07:32:37;4.63;;;2.22;;
82030;SDS011;71592;52.178;4.512;2023-10-19T07:35:04;5.20;;;2.50;;
82030;SDS011;71592;52.178;4.512;2023-10-19T07:37:29;5.95;;;2.08;;
82030;SDS011;71592;52.178;4.512;2023-10-19T07:39:54;3.83;;;1.83;;
82030;SDS011;71592;52.178;4.512;2023-10-19T07:42:22;4.10;;;2.15;;
82030;SDS011;71592;52.178;4.512;2023-10-19T07:44:47;6.80;;;2.15;;
82030;SDS011;71592;52.178;4.512;2023-10-19T07:47:12;8.27;;;2.80;;
82030;SDS011;71592;52.178;4.512;2023-10-19T07:49:38;7.95;;;2.50;;
82030;SDS011;71592;52.178;4.512;2023-10-19T07:52:04;7.07;;;2.50;;
82030;SDS011;71592;52.178;4.512;2023-10-19T07:54:31;5.57;;;2.15;;
82030;SDS011;71592;52.178;4.512;2023-10-19T07:56:56;4.10;;;2.23;;
82030;SDS011;71592;52.178;4.512;2023-10-19T07:59:22;4.97;;;2.10;;
82030;SDS011;71592;52.178;4.512;2023-10-19T08:01:47;4.23;;;1.97;;
82030;SDS011;71592;52.178;4.512;2023-10-19T08:04:13;4.80;;;2.30;;
82030;SDS011;71592;52.178;4.512;2023-10-19T08:06:38;5.20;;;1.90;;
82030;SDS011;71592;52.178;4.512;2023-10-19T08:09:03;4.47;;;2.60;;
82030;SDS011;71592;52.178;4.512;2023-10-19T08:11:30;4.82;;;2.13;;
82030;SDS011;71592;52.178;4.512;2023-10-19T08:13:56;4.50;;;2.13;;
82030;SDS011;71592;52.178;4.512;2023-10-19T08:16:21;7.05;;;2.45;;
82030;SDS011;71592;52.178;4.512;2023-10-19T08:18:47;5.45;;;2.40;;
82030;SDS011;71592;52.178;4.512;2023-10-19T08:21:13;5.28;;;2.20;;
82030;SDS011;71592;52.178;4.512;2023-10-19T08:23:39;6.70;;;2.20;;
82030;SDS011;71592;52.178;4.512;2023-10-19T08:26:05;6.03;;;2.72;;
82030;SDS011;71592;52.178;4.512;2023-10-19T08:28:31;6.00;;;2.22;;
82030;SDS011;71592;52.178;4.512;2023-10-19T08:30:57;5.22;;;2.10;;
82030;SDS011;71592;52.178;4.512;2023-10-19T08:33:26;6.03;;;2.20;;
82030;SDS011;71592;52.178;4.512;2023-10-19T08:35:54;5.43;;;2.53;;
82030;SDS011;71592;52.178;4.512;2023-10-19T08:38:19;6.05;;;2.45;;
82030;SDS011;71592;52.178;4.512;2023-10-19T08:40:45;6.60;;;2.58;;
82030;SDS011;71592;52.178;4.512;2023-10-19T08:43:11;7.00;;;2.58;;
82030;SDS011;71592;52.178;4.512;2023-10-19T08:45:38;6.60;;;2.92;;
82030;SDS011;71592;52.178;4.512;2023-10-19T08:48:04;6.95;;;2.63;;
82030;SDS011;71592;52.178;4.512;2023-10-19T08:50:30;6.40;;;3.03;;
82030;SDS011;71592;52.178;4.512;2023-10-19T08:52:56;4.93;;;2.33;;
82030;SDS011;71592;52.178;4.512;2023-10-19T08:55:22;6.82;;;2.78;;
82030;SDS011;71592;52.178;4.512;2023-10-19T08:57:48;7.25;;;2.80;;
82030;SDS011;71592;52.178;4.512;2023-10-19T09:00:14;4.03;;;2.40;;
82030;SDS011;71592;52.178;4.512;2023-10-19T09:02:42;3.95;;;2.72;;
82030;SDS011;71592;52.178;4.512;2023-10-19T09:05:08;13.93;;;2.50;;
82030;SDS011;71592;52.178;4.512;2023-10-19T09:07:34;5.15;;;2.88;;
82030;SDS011;71592;52.178;4.512;2023-10-19T09:09:59;7.00;;;3.30;;
82030;SDS011;71592;52.178;4.512;2023-10-19T09:12:26;8.15;;;3.15;;
82030;SDS011;71592;52.178;4.512;2023-10-19T09:14:52;6.30;;;2.47;;
82030;SDS011;71592;52.178;4.512;2023-10-19T09:17:27;6.82;;;2.63;;
82030;SDS011;71592;52.178;4.512;2023-10-19T09:19:53;7.20;;;2.80;;
82030;SDS011;71592;52.178;4.512;2023-10-19T09:22:19;7.32;;;2.90;;
82030;SDS011;71592;52.178;4.512;2023-10-19T09:24:51;8.45;;;2.85;;
82030;SDS011;71592;52.178;4.512;2023-10-19T09:27:18;6.53;;;2.90;;
82030;SDS011;71592;52.178;4.512;2023-10-19T09:29:44;6.40;;;2.75;;
82030;SDS011;71592;52.178;4.512;2023-10-19T09:32:10;6.60;;;3.38;;
82030;SDS011;71592;52.178;4.512;2023-10-19T09:34:38;8.23;;;4.10;;
82030;SDS011;71592;52.178;4.512;2023-10-19T09:37:06;8.13;;;2.72;;
82030;SDS011;71592;52.178;4.512;2023-10-19T09:39:31;5.75;;;2.92;;
82030;SDS011;71592;52.178;4.512;2023-10-19T09:42:00;8.25;;;2.90;;
82030;SDS011;71592;52.178;4.512;2023-10-19T09:44:30;8.85;;;3.03;;
82030;SDS011;71592;52.178;4.512;2023-10-19T09:46:59;7.18;;;3.15;;
82030;SDS011;71592;52.178;4.512;2023-10-19T09:49:25;5.65;;;3.05;;
82030;SDS011;71592;52.178;4.512;2023-10-19T09:51:53;7.13;;;2.60;;
82030;SDS011;71592;52.178;4.512;2023-10-19T09:54:31;11.00;;;3.15;;
82030;SDS011;71592;52.178;4.512;2023-10-19T09:57:00;8.32;;;2.72;;
82030;SDS011;71592;52.178;4.512;2023-10-19T09:59:33;7.78;;;2.78;;
82030;SDS011;71592;52.178;4.512;2023-10-19T10:02:12;8.82;;;3.50;;
82030;SDS011;71592;52.178;4.512;2023-10-19T10:04:38;8.40;;;3.20;;
82030;SDS011;71592;52.178;4.512;2023-10-19T10:07:05;10.23;;;2.92;;
82030;SDS011;71592;52.178;4.512;2023-10-19T10:09:31;10.23;;;3.65;;
82030;SDS011;71592;52.178;4.512;2023-10-19T10:12:14;6.70;;;2.47;;
82030;SDS011;71592;52.178;4.512;2023-10-19T10:14:40;7.28;;;3.10;;
82030;SDS011;71592;52.178;4.512;2023-10-19T10:17:17;9.68;;;3.08;;
82030;SDS011;71592;52.178;4.512;2023-10-19T10:19:43;11.15;;;3.17;;
82030;SDS011;71592;52.178;4.512;2023-10-19T10:22:09;7.85;;;2.95;;
82030;SDS011;71592;52.178;4.512;2023-10-19T10:24:42;7.57;;;3.25;;
82030;SDS011;71592;52.178;4.512;2023-10-19T10:27:07;8.07;;;3.00;;
82030;SDS011;71592;52.178;4.512;2023-10-19T10:29:34;8.82;;;2.97;;
82030;SDS011;71592;52.178;4.512;2023-10-19T10:32:00;7.57;;;3.92;;
82030;SDS011;71592;52.178;4.512;2023-10-19T10:37:07;8.95;;;2.88;;
82030;SDS011;71592;52.178;4.512;2023-10-19T10:39:34;12.25;;;3.40;;
82030;SDS011;71592;52.178;4.512;2023-10-19T10:42:02;6.75;;;3.38;;
82030;SDS011;71592;52.178;4.512;2023-10-19T10:44:37;7.50;;;3.35;;
82030;SDS011;71592;52.178;4.512;2023-10-19T10:49:33;7.78;;;3.55;;
82030;SDS011;71592;52.178;4.512;2023-10-19T10:51:58;10.48;;;3.55;;
82030;SDS011;71592;52.178;4.512;2023-10-19T10:54:23;7.43;;;2.87;;
82030;SDS011;71592;52.178;4.512;2023-10-19T10:56:49;6.65;;;2.88;;
82030;SDS011;71592;52.178;4.512;2023-10-19T10:59:14;5.88;;;3.35;;
82030;SDS011;71592;52.178;4.512;2023-10-19T11:01:39;14.73;;;3.63;;
82030;SDS011;71592;52.178;4.512;2023-10-19T11:04:10;9.07;;;3.15;;
82030;SDS011;71592;52.178;4.512;2023-10-19T11:06:47;7.80;;;3.72;;
82030;SDS011;71592;52.178;4.512;2023-10-19T11:09:14;8.07;;;2.92;;
82030;SDS011;71592;52.178;4.512;2023-10-19T11:11:43;8.68;;;3.33;;
82030;SDS011;71592;52.178;4.512;2023-10-19T11:14:09;6.38;;;3.38;;
82030;SDS011;71592;52.178;4.512;2023-10-19T11:16:36;7.00;;;3.42;;
82030;SDS011;71592;52.178;4.512;2023-10-19T11:19:02;7.78;;;3.20;;
82030;SDS011;71592;52.178;4.512;2023-10-19T11:21:27;6.72;;;2.83;;
82030;SDS011;71592;52.178;4.512;2023-10-19T11:23:53;9.07;;;3.20;;
82030;SDS011;71592;52.178;4.512;2023-10-19T11:26:20;11.53;;;3.53;;
82030;SDS011;71592;52.178;4.512;2023-10-19T11:28:45;7.07;;;2.80;;
82030;SDS011;71592;52.178;4.512;2023-10-19T11:31:19;9.43;;;3.03;;
82030;SDS011;71592;52.178;4.512;2023-10-19T11:33:45;8.25;;;2.78;;
82030;SDS011;71592;52.178;4.512;2023-10-19T11:36:11;9.50;;;3.05;;
82030;SDS011;71592;52.178;4.512;2023-10-19T11:38:43;6.97;;;3.13;;
82030;SDS011;71592;52.178;4.512;2023-10-19T11:41:09;6.25;;;3.08;;
82030;SDS011;71592;52.178;4.512;2023-10-19T11:43:35;7.82;;;2.58;;
82030;SDS011;71592;52.178;4.512;2023-10-19T11:46:00;6.60;;;2.40;;
82030;SDS011;71592;52.178;4.512;2023-10-19T11:48:26;5.85;;;3.10;;
82030;SDS011;71592;52.178;4.512;2023-10-19T11:50:51;7.37;;;2.33;;
82030;SDS011;71592;52.178;4.512;2023-10-19T11:53:16;11.13;;;2.88;;
82030;SDS011;71592;52.178;4.512;2023-10-19T11:55:42;6.32;;;2.28;;
82030;SDS011;71592;52.178;4.512;2023-10-19T11:58:07;6.07;;;2.58;;
82030;SDS011;71592;52.178;4.512;2023-10-19T12:00:36;6.40;;;2.45;;
82030;SDS011;71592;52.178;4.512;2023-10-19T12:03:03;6.28;;;2.35;;
82030;SDS011;71592;52.178;4.512;2023-10-19T12:05:28;10.00;;;3.33;;
82030;SDS011;71592;52.178;4.512;2023-10-19T12:07:54;7.22;;;2.67;;
82030;SDS011;71592;52.178;4.512;2023-10-19T12:10:19;6.85;;;2.30;;
82030;SDS011;71592;52.178;4.512;2023-10-19T12:12:54;9.52;;;2.80;;
82030;SDS011;71592;52.178;4.512;2023-10-19T12:15:21;10.10;;;2.95;;
82030;SDS011;71592;52.178;4.512;2023-10-19T12:17:47;5.75;;;2.60;;
82030;SDS011;71592;52.178;4.512;2023-10-19T12:20:14;7.45;;;2.40;;
82030;SDS011;71592;52.178;4.512;2023-10-19T12:22:39;9.47;;;2.53;;
82030;SDS011;71592;52.178;4.512;2023-10-19T12:25:05;6.65;;;2.15;;
82030;SDS011;71592;52.178;4.512;2023-10-19T12:27:30;7.38;;;2.45;;
82030;SDS011;71592;52.178;4.512;2023-10-19T12:29:56;9.73;;;3.40;;
82030;SDS011;71592;52.178;4.512;2023-10-19T12:32:21;7.50;;;2.63;;
82030;SDS011;71592;52.178;4.512;2023-10-19T12:34:46;6.65;;;2.80;;
82030;SDS011;71592;52.178;4.512;2023-10-19T12:37:15;9.93;;;2.85;;
82030;SDS011;71592;52.178;4.512;2023-10-19T12:39:42;9.63;;;2.70;;
82030;SDS011;71592;52.178;4.512;2023-10-19T12:42:10;8.60;;;2.88;;
82030;SDS011;71592;52.178;4.512;2023-10-19T12:44:35;6.28;;;2.53;;
82030;SDS011;71592;52.178;4.512;2023-10-19T12:47:07;4.40;;;2.13;;
82030;SDS011;71592;52.178;4.512;2023-10-19T12:49:40;8.68;;;2.83;;
82030;SDS011;71592;52.178;4.512;2023-10-19T12:52:06;12.30;;;3.72;;
82030;SDS011;71592;52.178;4.512;2023-10-19T12:54:32;10.13;;;3.42;;
82030;SDS011;71592;52.178;4.512;2023-10-19T12:56:59;6.43;;;2.63;;
82030;SDS011;71592;52.178;4.512;2023-10-19T12:59:25;6.37;;;2.27;;
82030;SDS011;71592;52.178;4.512;2023-10-19T13:01:50;8.37;;;2.90;;
82030;SDS011;71592;52.178;4.512;2023-10-19T13:04:19;9.18;;;2.50;;
82030;SDS011;71592;52.178;4.512;2023-10-19T13:06:45;11.73;;;3.08;;
82030;SDS011;71592;52.178;4.512;2023-10-19T13:09:12;7.25;;;2.83;;
82030;SDS011;71592;52.178;4.512;2023-10-19T13:11:40;6.55;;;2.90;;
82030;SDS011;71592;52.178;4.512;2023-10-19T13:14:08;6.38;;;2.55;;
82030;SDS011;71592;52.178;4.512;2023-10-19T13:16:35;7.80;;;2.72;;
82030;SDS011;71592;52.178;4.512;2023-10-19T13:19:00;8.15;;;2.80;;
82030;SDS011;71592;52.178;4.512;2023-10-19T13:21:34;9.18;;;2.53;;
82030;SDS011;71592;52.178;4.512;2023-10-19T13:23:59;9.88;;;2.78;;
82030;SDS011;71592;52.178;4.512;2023-10-19T13:26:24;6.70;;;2.55;;
82030;SDS011;71592;52.178;4.512;2023-10-19T13:28:51;10.00;;;2.88;;
82030;SDS011;71592;52.178;4.512;2023-10-19T13:31:20;9.43;;;2.67;;
82030;SDS011;71592;52.178;4.512;2023-10-19T13:33:47;5.03;;;2.70;;
82030;SDS011;71592;52.178;4.512;2023-10-19T13:36:12;8.43;;;2.70;;
82030;SDS011;71592;52.178;4.512;2023-10-19T13:38:38;5.63;;;2.42;;
82030;SDS011;71592;52.178;4.512;2023-10-19T13:41:06;7.80;;;2.88;;
82030;SDS011;71592;52.178;4.512;2023-10-19T13:43:35;8.48;;;3.22;;
82030;SDS011;71592;52.178;4.512;2023-10-19T13:46:01;5.88;;;2.95;;
82030;SDS011;71592;52.178;4.512;2023-10-19T13:48:26;9.13;;;3.80;;
82030;SDS011;71592;52.178;4.512;2023-10-19T13:50:52;7.90;;;2.80;;
82030;SDS011;71592;52.178;4.512;2023-10-19T13:53:25;6.38;;;2.78;;
82030;SDS011;71592;52.178;4.512;2023-10-19T13:55:50;8.77;;;2.75;;
82030;SDS011;71592;52.178;4.512;2023-10-19T13:58:15;8.00;;;2.97;;
82030;SDS011;71592;52.178;4.512;2023-10-19T14:00:41;8.15;;;2.80;;
82030;SDS011;71592;52.178;4.512;2023-10-19T14:03:08;10.38;;;3.15;;
82030;SDS011;71592;52.178;4.512;2023-10-19T14:05:37;6.90;;;2.60;;
82030;SDS011;71592;52.178;4.512;2023-10-19T14:08:04;10.30;;;3.58;;
82030;SDS011;71592;52.178;4.512;2023-10-19T14:10:29;6.50;;;2.60;;
82030;SDS011;71592;52.178;4.512;2023-10-19T14:12:55;8.18;;;3.22;;
82030;SDS011;71592;52.178;4.512;2023-10-19T14:15:21;11.45;;;3.40;;
82030;SDS011;71592;52.178;4.512;2023-10-19T14:17:47;10.57;;;3.03;;
82030;SDS011;71592;52.178;4.512;2023-10-19T14:20:16;7.95;;;3.28;;
82030;SDS011;71592;52.178;4.512;2023-10-19T14:22:42;7.03;;;3.72;;
82030;SDS011;71592;52.178;4.512;2023-10-19T14:25:08;11.52;;;4.25;;
82030;SDS011;71592;52.178;4.512;2023-10-19T14:27:37;12.35;;;3.15;;
82030;SDS011;71592;52.178;4.512;2023-10-19T14:30:02;8.60;;;3.13;;
82030;SDS011;71592;52.178;4.512;2023-10-19T14:32:28;7.50;;;2.65;;
82030;SDS011;71592;52.178;4.512;2023-10-19T14:34:53;11.97;;;3.47;;
82030;SDS011;71592;52.178;4.512;2023-10-19T14:37:19;8.63;;;3.33;;
82030;SDS011;71592;52.178;4.512;2023-10-19T14:39:44;8.50;;;3.70;;
82030;SDS011;71592;52.178;4.512;2023-10-19T14:42:10;5.30;;;3.15;;
82030;SDS011;71592;52.178;4.512;2023-10-19T14:44:35;10.43;;;3.00;;
82030;SDS011;71592;52.178;4.512;2023-10-19T14:47:01;9.13;;;3.22;;
82030;SDS011;71592;52.178;4.512;2023-10-19T14:49:27;7.00;;;2.88;;
82030;SDS011;71592;52.178;4.512;2023-10-19T14:51:53;7.50;;;2.87;;
82030;SDS011;71592;52.178;4.512;2023-10-19T14:54:18;7.97;;;3.00;;
82030;SDS011;71592;52.178;4.512;2023-10-19T14:56:43;10.77;;;3.27;;